sensor_id;sensor_type;location;lat;lon;timestamp;P1;durP1;ratioP1;P2;durP2;ratioP2
21432;SDS011;18592;49.708;10.900;2023-06-22T00:00:14;8.43;;;7.65;;
21432;SDS011;18592;49.708;10.900;2023-06-22T00:02:15;8.95;;;8.05;;
21432;SDS011;18592;49.708;10.900;2023-06-22T00:04:15;8.38;;;7.57;;
21432;SDS011;18592;49.708;10.900;2023-06-22T00:06:16;8.73;;;7.82;;
21432;SDS011;18592;49.708;10.900;2023-06-22T00:08:19;8.57;;;7.78;;
21432;SDS011;18592;49.708;10.900;2023-06-22T00:10:20;8.82;;;7.93;;
21432;SDS011;18592;49.708;10.900;2023-06-22T00:12:20;8.20;;;7.43;;
21432;SDS011;18592;49.708;10.900;2023-06-22T00:14:21;9.02;;;8.10;;
21432;SDS011;18592;49.708;10.900;2023-06-22T00:16:24;8.07;;;7.28;;
21432;SDS011;18592;49.708;10.900;2023-06-22T00:18:25;8.68;;;7.78;;
21432;SDS011;18592;49.708;10.900;2023-06-22T00:20:28;8.50;;;7.70;;
21432;SDS011;18592;49.708;10.900;2023-06-22T00:22:29;8.48;;;7.68;;
21432;SDS011;18592;49.708;10.900;2023-06-22T00:24:29;8.63;;;7.82;;
21432;SDS011;18592;49.708;10.900;2023-06-22T00:26:29;9.02;;;8.23;;
21432;SDS011;18592;49.708;10.900;2023-06-22T00:28:30;8.75;;;7.95;;
21432;SDS011;18592;49.708;10.900;2023-06-22T00:30:30;8.88;;;8.07;;
21432;SDS011;18592;49.708;10.900;2023-06-22T00:32:31;7.70;;;7.00;;
21432;SDS011;18592;49.708;10.900;2023-06-22T00:34:32;7.90;;;7.20;;
21432;SDS011;18592;49.708;10.900;2023-06-22T00:36:33;7.80;;;7.10;;
21432;SDS011;18592;49.708;10.900;2023-06-22T00:38:34;8.00;;;7.20;;
21432;SDS011;18592;49.708;10.900;2023-06-22T00:40:36;7.65;;;6.95;;
21432;SDS011;18592;49.708;10.900;2023-06-22T00:42:37;8.55;;;7.75;;
21432;SDS011;18592;49.708;10.900;2023-06-22T00:44:39;7.82;;;7.13;;
21432;SDS011;18592;49.708;10.900;2023-06-22T00:46:39;9.10;;;8.20;;
21432;SDS011;18592;49.708;10.900;2023-06-22T00:48:44;9.23;;;8.32;;
21432;SDS011;18592;49.708;10.900;2023-06-22T00:50:45;8.23;;;7.43;;
21432;SDS011;18592;49.708;10.900;2023-06-22T00:52:51;8.90;;;8.07;;
21432;SDS011;18592;49.708;10.900;2023-06-22T00:54:53;8.90;;;8.10;;
21432;SDS011;18592;49.708;10.900;2023-06-22T00:56:54;10.30;;;9.30;;
21432;SDS011;18592;49.708;10.900;2023-06-22T00:58:56;9.07;;;7.85;;
21432;SDS011;18592;49.708;10.900;2023-06-22T01:00:59;8.38;;;7.57;;
21432;SDS011;18592;49.708;10.900;2023-06-22T01:03:01;9.27;;;8.38;;
21432;SDS011;18592;49.708;10.900;2023-06-22T01:05:04;9.68;;;8.43;;
21432;SDS011;18592;49.708;10.900;2023-06-22T01:07:16;9.50;;;8.50;;
21432;SDS011;18592;49.708;10.900;2023-06-22T01:09:20;9.30;;;8.32;;
21432;SDS011;18592;49.708;10.900;2023-06-22T01:11:41;8.05;;;7.35;;
21432;SDS011;18592;49.708;10.900;2023-06-22T01:13:59;8.98;;;8.07;;
21432;SDS011;18592;49.708;10.900;2023-06-22T01:16:07;8.73;;;7.93;;
21432;SDS011;18592;49.708;10.900;2023-06-22T01:18:24;8.95;;;8.07;;
21432;SDS011;18592;49.708;10.900;2023-06-22T01:20:28;8.55;;;7.65;;
21432;SDS011;18592;49.708;10.900;2023-06-22T01:28:00;9.18;;;8.27;;
21432;SDS011;18592;49.708;10.900;2023-06-22T01:30:16;8.57;;;7.78;;
21432;SDS011;18592;49.708;10.900;2023-06-22T01:32:18;8.38;;;7.47;;
21432;SDS011;18592;49.708;10.900;2023-06-22T01:34:20;8.73;;;7.90;;
21432;SDS011;18592;49.708;10.900;2023-06-22T01:36:31;9.85;;;8.27;;
21432;SDS011;18592;49.708;10.900;2023-06-22T01:38:33;9.30;;;8.43;;
21432;SDS011;18592;49.708;10.900;2023-06-22T01:40:35;8.90;;;8.00;;
21432;SDS011;18592;49.708;10.900;2023-06-22T01:42:36;9.05;;;8.15;;
21432;SDS011;18592;49.708;10.900;2023-06-22T01:44:40;8.65;;;7.85;;
21432;SDS011;18592;49.708;10.900;2023-06-22T01:46:43;9.30;;;8.27;;
21432;SDS011;18592;49.708;10.900;2023-06-22T01:48:46;9.07;;;7.75;;
21432;SDS011;18592;49.708;10.900;2023-06-22T01:50:47;8.40;;;7.60;;
21432;SDS011;18592;49.708;10.900;2023-06-22T01:52:48;8.82;;;8.02;;
21432;SDS011;18592;49.708;10.900;2023-06-22T01:54:49;8.90;;;8.00;;
21432;SDS011;18592;49.708;10.900;2023-06-22T01:56:58;8.55;;;7.45;;
21432;SDS011;18592;49.708;10.900;2023-06-22T01:59:09;8.55;;;7.60;;
21432;SDS011;18592;49.708;10.900;2023-06-22T02:01:14;8.88;;;8.07;;
21432;SDS011;18592;49.708;10.900;2023-06-22T02:03:26;8.52;;;7.70;;
21432;SDS011;18592;49.708;10.900;2023-06-22T02:05:33;8.32;;;7.63;;
21432;SDS011;18592;49.708;10.900;2023-06-22T02:07:39;9.23;;;8.32;;
21432;SDS011;18592;49.708;10.900;2023-06-22T02:09:45;9.05;;;8.15;;
21432;SDS011;18592;49.708;10.900;2023-06-22T02:11:47;8.82;;;7.88;;
21432;SDS011;18592;49.708;10.900;2023-06-22T02:13:51;9.07;;;8.18;;
21432;SDS011;18592;49.708;10.900;2023-06-22T02:15:52;9.73;;;8.82;;
21432;SDS011;18592;49.708;10.900;2023-06-22T02:17:55;9.40;;;7.65;;
21432;SDS011;18592;49.708;10.900;2023-06-22T02:19:57;9.07;;;8.18;;
21432;SDS011;18592;49.708;10.900;2023-06-22T02:21:58;9.40;;;7.88;;
21432;SDS011;18592;49.708;10.900;2023-06-22T02:24:00;8.38;;;7.57;;
21432;SDS011;18592;49.708;10.900;2023-06-22T02:26:04;8.70;;;7.80;;
21432;SDS011;18592;49.708;10.900;2023-06-22T02:28:16;8.45;;;7.65;;
21432;SDS011;18592;49.708;10.900;2023-06-22T02:30:19;8.52;;;7.68;;
21432;SDS011;18592;49.708;10.900;2023-06-22T02:32:19;8.75;;;7.95;;
21432;SDS011;18592;49.708;10.900;2023-06-22T02:34:23;9.23;;;8.30;;
21432;SDS011;18592;49.708;10.900;2023-06-22T02:36:25;8.98;;;8.07;;
21432;SDS011;18592;49.708;10.900;2023-06-22T02:38:27;9.38;;;8.48;;
21432;SDS011;18592;49.708;10.900;2023-06-22T02:40:28;11.43;;;9.40;;
21432;SDS011;18592;49.708;10.900;2023-06-22T02:42:30;9.38;;;8.48;;
21432;SDS011;18592;49.708;10.900;2023-06-22T02:44:31;9.65;;;8.68;;
21432;SDS011;18592;49.708;10.900;2023-06-22T02:46:47;10.07;;;9.07;;
21432;SDS011;18592;49.708;10.900;2023-06-22T02:48:49;9.82;;;8.93;;
21432;SDS011;18592;49.708;10.900;2023-06-22T02:50:49;10.75;;;9.68;;
21432;SDS011;18592;49.708;10.900;2023-06-22T02:52:49;12.88;;;10.27;;
21432;SDS011;18592;49.708;10.900;2023-06-22T02:54:50;10.90;;;8.93;;
21432;SDS011;18592;49.708;10.900;2023-06-22T02:56:50;9.70;;;8.80;;
21432;SDS011;18592;49.708;10.900;2023-06-22T02:58:52;10.13;;;9.13;;
21432;SDS011;18592;49.708;10.900;2023-06-22T03:00:52;9.50;;;8.60;;
21432;SDS011;18592;49.708;10.900;2023-06-22T03:02:53;9.82;;;8.38;;
21432;SDS011;18592;49.708;10.900;2023-06-22T03:04:53;9.95;;;8.95;;
21432;SDS011;18592;49.708;10.900;2023-06-22T03:06:59;14.00;;;9.10;;
21432;SDS011;18592;49.708;10.900;2023-06-22T03:09:03;10.57;;;8.73;;
21432;SDS011;18592;49.708;10.900;2023-06-22T03:11:05;9.60;;;8.70;;
21432;SDS011;18592;49.708;10.900;2023-06-22T03:13:06;10.60;;;9.50;;
21432;SDS011;18592;49.708;10.900;2023-06-22T03:15:07;9.48;;;8.57;;
21432;SDS011;18592;49.708;10.900;2023-06-22T03:17:20;9.55;;;8.60;;
21432;SDS011;18592;49.708;10.900;2023-06-22T03:19:21;10.13;;;9.15;;
21432;SDS011;18592;49.708;10.900;2023-06-22T03:21:22;10.82;;;9.65;;
21432;SDS011;18592;49.708;10.900;2023-06-22T03:23:23;10.63;;;9.55;;
21432;SDS011;18592;49.708;10.900;2023-06-22T03:25:23;9.93;;;8.98;;
21432;SDS011;18592;49.708;10.900;2023-06-22T03:27:24;11.65;;;9.85;;
21432;SDS011;18592;49.708;10.900;2023-06-22T03:29:25;10.32;;;9.23;;
21432;SDS011;18592;49.708;10.900;2023-06-22T03:31:26;10.15;;;9.20;;
21432;SDS011;18592;49.708;10.900;2023-06-22T03:33:26;10.52;;;9.52;;
21432;SDS011;18592;49.708;10.900;2023-06-22T03:35:27;9.25;;;8.35;;
21432;SDS011;18592;49.708;10.900;2023-06-22T03:37:28;11.30;;;10.30;;
21432;SDS011;18592;49.708;10.900;2023-06-22T03:39:29;11.43;;;10.23;;
21432;SDS011;18592;49.708;10.900;2023-06-22T03:41:32;10.45;;;9.38;;
21432;SDS011;18592;49.708;10.900;2023-06-22T03:43:32;11.52;;;10.40;;
21432;SDS011;18592;49.708;10.900;2023-06-22T03:45:32;11.27;;;10.18;;
21432;SDS011;18592;49.708;10.900;2023-06-22T03:47:33;10.05;;;9.13;;
21432;SDS011;18592;49.708;10.900;2023-06-22T03:49:34;11.30;;;10.15;;
21432;SDS011;18592;49.708;10.900;2023-06-22T03:51:34;10.68;;;9.57;;
21432;SDS011;18592;49.708;10.900;2023-06-22T03:53:35;10.40;;;9.40;;
21432;SDS011;18592;49.708;10.900;2023-06-22T03:55:37;10.73;;;9.63;;
21432;SDS011;18592;49.708;10.900;2023-06-22T03:57:40;9.68;;;8.68;;
21432;SDS011;18592;49.708;10.900;2023-06-22T03:59:56;10.57;;;9.48;;
21432;SDS011;18592;49.708;10.900;2023-06-22T04:01:57;11.55;;;10.10;;
21432;SDS011;18592;49.708;10.900;2023-06-22T04:03:58;11.23;;;10.10;;
21432;SDS011;18592;49.708;10.900;2023-06-22T04:05:58;10.55;;;9.38;;
21432;SDS011;18592;49.708;10.900;2023-06-22T04:07:59;11.90;;;10.70;;
21432;SDS011;18592;49.708;10.900;2023-06-22T04:09:59;10.75;;;9.65;;
21432;SDS011;18592;49.708;10.900;2023-06-22T04:12:00;10.43;;;9.45;;
21432;SDS011;18592;49.708;10.900;2023-06-22T04:14:01;11.00;;;9.90;;
21432;SDS011;18592;49.708;10.900;2023-06-22T04:16:01;10.65;;;9.52;;
21432;SDS011;18592;49.708;10.900;2023-06-22T04:18:02;10.77;;;9.82;;
21432;SDS011;18592;49.708;10.900;2023-06-22T04:20:02;10.32;;;9.23;;
21432;SDS011;18592;49.708;10.900;2023-06-22T04:22:04;10.43;;;9.50;;
21432;SDS011;18592;49.708;10.900;2023-06-22T04:24:05;10.20;;;9.23;;
21432;SDS011;18592;49.708;10.900;2023-06-22T04:26:06;10.80;;;9.68;;
21432;SDS011;18592;49.708;10.900;2023-06-22T04:28:06;10.45;;;9.38;;
21432;SDS011;18592;49.708;10.900;2023-06-22T04:30:12;11.50;;;10.38;;
21432;SDS011;18592;49.708;10.900;2023-06-22T04:32:20;12.23;;;10.18;;
21432;SDS011;18592;49.708;10.900;2023-06-22T04:34:20;10.75;;;9.65;;
21432;SDS011;18592;49.708;10.900;2023-06-22T04:36:20;12.98;;;9.55;;
21432;SDS011;18592;49.708;10.900;2023-06-22T04:49:00;10.13;;;9.23;;
21432;SDS011;18592;49.708;10.900;2023-06-22T04:51:01;9.93;;;8.93;;
21432;SDS011;18592;49.708;10.900;2023-06-22T04:53:04;10.68;;;9.63;;
21432;SDS011;18592;49.708;10.900;2023-06-22T04:55:05;10.38;;;9.38;;
21432;SDS011;18592;49.708;10.900;2023-06-22T04:57:07;12.57;;;9.75;;
21432;SDS011;18592;49.708;10.900;2023-06-22T04:59:16;9.98;;;9.02;;
21432;SDS011;18592;49.708;10.900;2023-06-22T05:01:18;9.25;;;8.35;;
21432;SDS011;18592;49.708;10.900;2023-06-22T05:03:19;10.43;;;9.43;;
21432;SDS011;18592;49.708;10.900;2023-06-22T05:05:19;10.10;;;9.13;;
21432;SDS011;18592;49.708;10.900;2023-06-22T05:07:21;10.00;;;9.02;;
21432;SDS011;18592;49.708;10.900;2023-06-22T05:09:25;9.32;;;8.43;;
21432;SDS011;18592;49.708;10.900;2023-06-22T05:11:26;10.70;;;9.20;;
21432;SDS011;18592;49.708;10.900;2023-06-22T05:13:27;10.43;;;9.27;;
21432;SDS011;18592;49.708;10.900;2023-06-22T05:15:27;9.23;;;8.32;;
21432;SDS011;18592;49.708;10.900;2023-06-22T05:17:28;10.07;;;9.13;;
21432;SDS011;18592;49.708;10.900;2023-06-22T05:19:28;10.52;;;8.85;;
21432;SDS011;18592;49.708;10.900;2023-06-22T05:21:33;9.52;;;8.63;;
21432;SDS011;18592;49.708;10.900;2023-06-22T05:23:33;10.65;;;9.60;;
21432;SDS011;18592;49.708;10.900;2023-06-22T05:25:34;10.48;;;9.48;;
21432;SDS011;18592;49.708;10.900;2023-06-22T05:27:37;9.45;;;8.60;;
21432;SDS011;18592;49.708;10.900;2023-06-22T05:29:39;10.60;;;8.95;;
21432;SDS011;18592;49.708;10.900;2023-06-22T05:31:40;9.80;;;8.80;;
21432;SDS011;18592;49.708;10.900;2023-06-22T05:33:41;9.48;;;8.52;;
21432;SDS011;18592;49.708;10.900;2023-06-22T05:35:42;9.75;;;8.85;;
21432;SDS011;18592;49.708;10.900;2023-06-22T05:37:42;9.63;;;8.65;;
21432;SDS011;18592;49.708;10.900;2023-06-22T05:39:42;10.18;;;8.85;;
21432;SDS011;18592;49.708;10.900;2023-06-22T05:41:44;9.55;;;8.63;;
21432;SDS011;18592;49.708;10.900;2023-06-22T05:44:00;9.65;;;8.75;;
21432;SDS011;18592;49.708;10.900;2023-06-22T05:46:01;9.35;;;8.45;;
21432;SDS011;18592;49.708;10.900;2023-06-22T05:58:42;9.43;;;8.52;;
21432;SDS011;18592;49.708;10.900;2023-06-22T06:00:54;8.82;;;7.93;;
21432;SDS011;18592;49.708;10.900;2023-06-22T06:02:57;8.32;;;7.53;;
21432;SDS011;18592;49.708;10.900;2023-06-22T06:05:03;8.95;;;8.02;;
21432;SDS011;18592;49.708;10.900;2023-06-22T06:07:03;8.80;;;7.88;;
21432;SDS011;18592;49.708;10.900;2023-06-22T06:09:04;8.88;;;7.97;;
21432;SDS011;18592;49.708;10.900;2023-06-22T06:11:05;8.05;;;7.32;;
21432;SDS011;18592;49.708;10.900;2023-06-22T06:13:05;8.00;;;7.30;;
21432;SDS011;18592;49.708;10.900;2023-06-22T06:15:05;8.25;;;7.55;;
21432;SDS011;18592;49.708;10.900;2023-06-22T06:17:06;8.85;;;7.35;;
21432;SDS011;18592;49.708;10.900;2023-06-22T06:19:07;8.02;;;7.30;;
21432;SDS011;18592;49.708;10.900;2023-06-22T06:21:07;8.00;;;7.30;;
21432;SDS011;18592;49.708;10.900;2023-06-22T06:23:07;7.75;;;7.05;;
21432;SDS011;18592;49.708;10.900;2023-06-22T06:25:08;8.25;;;7.45;;
21432;SDS011;18592;49.708;10.900;2023-06-22T06:27:17;7.38;;;6.57;;
21432;SDS011;18592;49.708;10.900;2023-06-22T06:29:18;7.72;;;7.03;;
21432;SDS011;18592;49.708;10.900;2023-06-22T06:31:19;7.65;;;6.95;;
21432;SDS011;18592;49.708;10.900;2023-06-22T06:33:19;7.70;;;7.00;;
21432;SDS011;18592;49.708;10.900;2023-06-22T06:35:36;7.85;;;7.05;;
21432;SDS011;18592;49.708;10.900;2023-06-22T06:37:38;7.43;;;6.72;;
21432;SDS011;18592;49.708;10.900;2023-06-22T06:39:41;7.30;;;6.70;;
21432;SDS011;18592;49.708;10.900;2023-06-22T06:41:49;6.95;;;6.35;;
21432;SDS011;18592;49.708;10.900;2023-06-22T06:43:50;7.50;;;6.80;;
21432;SDS011;18592;49.708;10.900;2023-06-22T06:46:00;7.13;;;6.53;;
21432;SDS011;18592;49.708;10.900;2023-06-22T06:48:03;7.60;;;6.90;;
21432;SDS011;18592;49.708;10.900;2023-06-22T06:50:04;7.15;;;6.55;;
21432;SDS011;18592;49.708;10.900;2023-06-22T06:52:05;7.03;;;6.43;;
21432;SDS011;18592;49.708;10.900;2023-06-22T06:54:05;7.13;;;6.53;;
21432;SDS011;18592;49.708;10.900;2023-06-22T06:56:08;7.15;;;6.45;;
21432;SDS011;18592;49.708;10.900;2023-06-22T06:58:10;7.43;;;6.72;;
21432;SDS011;18592;49.708;10.900;2023-06-22T07:00:28;6.95;;;6.25;;
21432;SDS011;18592;49.708;10.900;2023-06-22T07:02:29;8.13;;;6.38;;
21432;SDS011;18592;49.708;10.900;2023-06-22T07:04:29;6.88;;;6.18;;
21432;SDS011;18592;49.708;10.900;2023-06-22T07:06:29;7.32;;;6.60;;
21432;SDS011;18592;49.708;10.900;2023-06-22T07:08:39;7.30;;;6.60;;
21432;SDS011;18592;49.708;10.900;2023-06-22T07:10:45;6.75;;;6.05;;
21432;SDS011;18592;49.708;10.900;2023-06-22T07:12:45;7.20;;;6.50;;
21432;SDS011;18592;49.708;10.900;2023-06-22T07:14:45;7.65;;;6.38;;
21432;SDS011;18592;49.708;10.900;2023-06-22T07:16:46;6.43;;;5.82;;
21432;SDS011;18592;49.708;10.900;2023-06-22T07:18:46;6.68;;;6.07;;
21432;SDS011;18592;49.708;10.900;2023-06-22T07:20:46;6.68;;;6.07;;
21432;SDS011;18592;49.708;10.900;2023-06-22T07:22:52;6.93;;;6.25;;
21432;SDS011;18592;49.708;10.900;2023-06-22T07:25:08;6.95;;;6.18;;
21432;SDS011;18592;49.708;10.900;2023-06-22T07:27:09;7.65;;;5.78;;
21432;SDS011;18592;49.708;10.900;2023-06-22T07:29:22;7.53;;;6.15;;
21432;SDS011;18592;49.708;10.900;2023-06-22T07:31:24;6.63;;;6.03;;
21432;SDS011;18592;49.708;10.900;2023-06-22T07:33:24;6.65;;;6.05;;
21432;SDS011;18592;49.708;10.900;2023-06-22T07:35:27;6.95;;;6.25;;
21432;SDS011;18592;49.708;10.900;2023-06-22T07:48:08;5.95;;;5.45;;
21432;SDS011;18592;49.708;10.900;2023-06-22T07:50:19;6.47;;;5.88;;
21432;SDS011;18592;49.708;10.900;2023-06-22T07:52:19;6.10;;;5.40;;
21432;SDS011;18592;49.708;10.900;2023-06-22T07:54:21;6.72;;;6.13;;
21432;SDS011;18592;49.708;10.900;2023-06-22T07:56:26;6.07;;;5.55;;
21432;SDS011;18592;49.708;10.900;2023-06-22T07:58:26;5.90;;;5.40;;
21432;SDS011;18592;49.708;10.900;2023-06-22T08:00:26;6.10;;;5.50;;
21432;SDS011;18592;49.708;10.900;2023-06-22T08:02:41;6.07;;;5.47;;
21432;SDS011;18592;49.708;10.900;2023-06-22T08:04:42;5.78;;;5.28;;
21432;SDS011;18592;49.708;10.900;2023-06-22T08:06:43;6.03;;;5.20;;
21432;SDS011;18592;49.708;10.900;2023-06-22T08:08:43;5.55;;;5.00;;
21432;SDS011;18592;49.708;10.900;2023-06-22T08:10:50;5.72;;;5.22;;
21432;SDS011;18592;49.708;10.900;2023-06-22T08:12:51;5.47;;;4.97;;
21432;SDS011;18592;49.708;10.900;2023-06-22T08:14:52;6.78;;;5.72;;
21432;SDS011;18592;49.708;10.900;2023-06-22T08:16:52;5.97;;;4.80;;
21432;SDS011;18592;49.708;10.900;2023-06-22T08:18:53;5.68;;;5.18;;
21432;SDS011;18592;49.708;10.900;2023-06-22T08:21:07;5.20;;;4.75;;
21432;SDS011;18592;49.708;10.900;2023-06-22T08:23:14;6.30;;;5.65;;
21432;SDS011;18592;49.708;10.900;2023-06-22T08:25:15;6.07;;;5.47;;
21432;SDS011;18592;49.708;10.900;2023-06-22T08:27:15;6.22;;;5.20;;
21432;SDS011;18592;49.708;10.900;2023-06-22T08:29:18;6.82;;;5.50;;
21432;SDS011;18592;49.708;10.900;2023-06-22T08:31:18;6.20;;;5.60;;
21432;SDS011;18592;49.708;10.900;2023-06-22T08:33:19;6.47;;;5.88;;
21432;SDS011;18592;49.708;10.900;2023-06-22T08:35:30;5.88;;;5.32;;
21432;SDS011;18592;49.708;10.900;2023-06-22T08:37:30;5.88;;;5.38;;
21432;SDS011;18592;49.708;10.900;2023-06-22T08:39:46;5.30;;;4.80;;
21432;SDS011;18592;49.708;10.900;2023-06-22T08:41:47;5.65;;;5.10;;
21432;SDS011;18592;49.708;10.900;2023-06-22T08:43:48;5.25;;;4.85;;
21432;SDS011;18592;49.708;10.900;2023-06-22T08:45:48;6.22;;;5.55;;
21432;SDS011;18592;49.708;10.900;2023-06-22T08:47:48;6.35;;;5.75;;
21432;SDS011;18592;49.708;10.900;2023-06-22T08:49:49;5.20;;;4.70;;
21432;SDS011;18592;49.708;10.900;2023-06-22T08:51:49;5.63;;;5.13;;
21432;SDS011;18592;49.708;10.900;2023-06-22T08:53:52;5.80;;;5.30;;
21432;SDS011;18592;49.708;10.900;2023-06-22T08:55:52;5.68;;;5.18;;
21432;SDS011;18592;49.708;10.900;2023-06-22T08:57:56;5.88;;;5.30;;
21432;SDS011;18592;49.708;10.900;2023-06-22T08:59:56;6.38;;;5.28;;
21432;SDS011;18592;49.708;10.900;2023-06-22T09:12:42;5.68;;;5.10;;
21432;SDS011;18592;49.708;10.900;2023-06-22T09:14:43;5.72;;;5.22;;
21432;SDS011;18592;49.708;10.900;2023-06-22T09:16:47;5.68;;;5.18;;
21432;SDS011;18592;49.708;10.900;2023-06-22T09:18:48;5.45;;;4.95;;
21432;SDS011;18592;49.708;10.900;2023-06-22T09:20:49;5.63;;;4.88;;
21432;SDS011;18592;49.708;10.900;2023-06-22T09:22:49;5.78;;;5.28;;
21432;SDS011;18592;49.708;10.900;2023-06-22T09:24:50;6.75;;;4.97;;
21432;SDS011;18592;49.708;10.900;2023-06-22T09:26:50;6.10;;;5.18;;
21432;SDS011;18592;49.708;10.900;2023-06-22T09:28:50;5.40;;;4.85;;
21432;SDS011;18592;49.708;10.900;2023-06-22T09:30:51;5.75;;;4.90;;
21432;SDS011;18592;49.708;10.900;2023-06-22T09:32:51;4.68;;;4.28;;
21432;SDS011;18592;49.708;10.900;2023-06-22T09:34:52;5.47;;;4.93;;
21432;SDS011;18592;49.708;10.900;2023-06-22T09:36:53;4.97;;;4.50;;
21432;SDS011;18592;49.708;10.900;2023-06-22T09:38:53;5.43;;;4.75;;
21432;SDS011;18592;49.708;10.900;2023-06-22T09:40:58;5.25;;;4.75;;
21432;SDS011;18592;49.708;10.900;2023-06-22T09:42:59;5.72;;;4.72;;
21432;SDS011;18592;49.708;10.900;2023-06-22T09:44:59;4.82;;;4.43;;
21432;SDS011;18592;49.708;10.900;2023-06-22T09:47:13;4.82;;;4.43;;
21432;SDS011;18592;49.708;10.900;2023-06-22T09:49:13;5.35;;;4.85;;
21432;SDS011;18592;49.708;10.900;2023-06-22T09:51:31;5.80;;;4.82;;
21432;SDS011;18592;49.708;10.900;2023-06-22T09:53:31;5.32;;;4.80;;
21432;SDS011;18592;49.708;10.900;2023-06-22T09:55:32;5.50;;;5.00;;
21432;SDS011;18592;49.708;10.900;2023-06-22T09:57:32;5.05;;;4.63;;
21432;SDS011;18592;49.708;10.900;2023-06-22T09:59:33;6.15;;;4.55;;
21432;SDS011;18592;49.708;10.900;2023-06-22T10:01:35;6.68;;;5.10;;
21432;SDS011;18592;49.708;10.900;2023-06-22T10:03:36;6.70;;;5.10;;
21432;SDS011;18592;49.708;10.900;2023-06-22T10:05:37;5.35;;;4.57;;
21432;SDS011;18592;49.708;10.900;2023-06-22T10:07:37;5.10;;;4.47;;
21432;SDS011;18592;49.708;10.900;2023-06-22T10:09:42;4.55;;;3.90;;
21432;SDS011;18592;49.708;10.900;2023-06-22T10:11:42;5.13;;;4.40;;
21432;SDS011;18592;49.708;10.900;2023-06-22T10:13:43;5.70;;;4.90;;
21432;SDS011;18592;49.708;10.900;2023-06-22T10:15:49;6.57;;;5.15;;
21432;SDS011;18592;49.708;10.900;2023-06-22T10:18:00;6.60;;;5.28;;
21432;SDS011;18592;49.708;10.900;2023-06-22T10:20:13;5.28;;;4.78;;
21432;SDS011;18592;49.708;10.900;2023-06-22T10:22:16;6.72;;;5.10;;
21432;SDS011;18592;49.708;10.900;2023-06-22T10:24:17;6.60;;;4.55;;
21432;SDS011;18592;49.708;10.900;2023-06-22T10:26:20;5.32;;;4.82;;
21432;SDS011;18592;49.708;10.900;2023-06-22T10:28:28;5.90;;;4.68;;
21432;SDS011;18592;49.708;10.900;2023-06-22T10:30:35;5.38;;;4.43;;
21432;SDS011;18592;49.708;10.900;2023-06-22T10:32:35;5.72;;;4.55;;
21432;SDS011;18592;49.708;10.900;2023-06-22T10:34:37;6.50;;;4.70;;
21432;SDS011;18592;49.708;10.900;2023-06-22T10:36:39;4.78;;;4.20;;
21432;SDS011;18592;49.708;10.900;2023-06-22T10:38:53;5.78;;;4.60;;
21432;SDS011;18592;49.708;10.900;2023-06-22T10:40:55;5.78;;;4.72;;
21432;SDS011;18592;49.708;10.900;2023-06-22T10:43:00;6.05;;;4.97;;
21432;SDS011;18592;49.708;10.900;2023-06-22T10:45:00;5.97;;;5.45;;
21432;SDS011;18592;49.708;10.900;2023-06-22T10:47:02;6.38;;;5.10;;
21432;SDS011;18592;49.708;10.900;2023-06-22T10:49:05;5.53;;;5.03;;
21432;SDS011;18592;49.708;10.900;2023-06-22T10:51:06;8.10;;;4.97;;
21432;SDS011;18592;49.708;10.900;2023-06-22T10:53:06;5.68;;;4.78;;
21432;SDS011;18592;49.708;10.900;2023-06-22T10:55:07;4.82;;;4.35;;
21432;SDS011;18592;49.708;10.900;2023-06-22T10:57:09;5.93;;;4.68;;
21432;SDS011;18592;49.708;10.900;2023-06-22T10:59:09;4.82;;;4.32;;
21432;SDS011;18592;49.708;10.900;2023-06-22T11:01:09;5.05;;;4.40;;
21432;SDS011;18592;49.708;10.900;2023-06-22T11:03:10;5.85;;;3.92;;
21432;SDS011;18592;49.708;10.900;2023-06-22T11:05:10;6.47;;;4.40;;
21432;SDS011;18592;49.708;10.900;2023-06-22T11:07:20;6.60;;;4.78;;
21432;SDS011;18592;49.708;10.900;2023-06-22T11:09:24;4.60;;;4.10;;
21432;SDS011;18592;49.708;10.900;2023-06-22T11:11:30;4.95;;;4.40;;
21432;SDS011;18592;49.708;10.900;2023-06-22T11:13:30;5.43;;;4.07;;
21432;SDS011;18592;49.708;10.900;2023-06-22T11:15:30;5.00;;;4.50;;
21432;SDS011;18592;49.708;10.900;2023-06-22T11:17:31;5.50;;;4.40;;
21432;SDS011;18592;49.708;10.900;2023-06-22T11:19:31;6.47;;;4.30;;
21432;SDS011;18592;49.708;10.900;2023-06-22T11:21:32;5.53;;;4.22;;
21432;SDS011;18592;49.708;10.900;2023-06-22T11:23:32;5.32;;;4.22;;
21432;SDS011;18592;49.708;10.900;2023-06-22T11:25:33;8.23;;;4.75;;
21432;SDS011;18592;49.708;10.900;2023-06-22T11:27:35;5.78;;;4.50;;
21432;SDS011;18592;49.708;10.900;2023-06-22T11:29:35;6.93;;;4.78;;
21432;SDS011;18592;49.708;10.900;2023-06-22T11:31:40;6.10;;;4.70;;
21432;SDS011;18592;49.708;10.900;2023-06-22T11:33:42;6.05;;;4.47;;
21432;SDS011;18592;49.708;10.900;2023-06-22T11:35:45;7.70;;;5.28;;
21432;SDS011;18592;49.708;10.900;2023-06-22T11:37:47;6.30;;;4.95;;
21432;SDS011;18592;49.708;10.900;2023-06-22T11:39:50;7.53;;;4.55;;
21432;SDS011;18592;49.708;10.900;2023-06-22T11:41:51;6.05;;;5.15;;
21432;SDS011;18592;49.708;10.900;2023-06-22T11:43:55;7.65;;;4.80;;
21432;SDS011;18592;49.708;10.900;2023-06-22T11:45:55;6.20;;;4.85;;
21432;SDS011;18592;49.708;10.900;2023-06-22T11:47:56;5.50;;;4.97;;
21432;SDS011;18592;49.708;10.900;2023-06-22T11:49:56;7.97;;;5.10;;
21432;SDS011;18592;49.708;10.900;2023-06-22T11:51:57;5.45;;;4.85;;
21432;SDS011;18592;49.708;10.900;2023-06-22T11:53:57;6.55;;;4.85;;
21432;SDS011;18592;49.708;10.900;2023-06-22T11:55:58;5.50;;;4.85;;
21432;SDS011;18592;49.708;10.900;2023-06-22T11:58:02;6.55;;;5.25;;
21432;SDS011;18592;49.708;10.900;2023-06-22T12:00:05;5.38;;;4.50;;
21432;SDS011;18592;49.708;10.900;2023-06-22T12:02:17;5.95;;;4.57;;
21432;SDS011;18592;49.708;10.900;2023-06-22T12:04:25;5.53;;;4.88;;
21432;SDS011;18592;49.708;10.900;2023-06-22T12:06:25;6.38;;;4.57;;
21432;SDS011;18592;49.708;10.900;2023-06-22T12:08:26;5.78;;;4.63;;
21432;SDS011;18592;49.708;10.900;2023-06-22T12:10:26;5.50;;;4.80;;
21432;SDS011;18592;49.708;10.900;2023-06-22T12:12:30;5.47;;;4.85;;
21432;SDS011;18592;49.708;10.900;2023-06-22T12:14:30;5.88;;;4.53;;
21432;SDS011;18592;49.708;10.900;2023-06-22T12:16:30;9.13;;;5.03;;
21432;SDS011;18592;49.708;10.900;2023-06-22T12:18:32;7.93;;;4.85;;
21432;SDS011;18592;49.708;10.900;2023-06-22T12:20:32;7.07;;;5.25;;
21432;SDS011;18592;49.708;10.900;2023-06-22T12:22:41;5.13;;;4.63;;
21432;SDS011;18592;49.708;10.900;2023-06-22T12:24:41;6.97;;;5.13;;
21432;SDS011;18592;49.708;10.900;2023-06-22T12:26:42;7.18;;;5.22;;
21432;SDS011;18592;49.708;10.900;2023-06-22T12:28:42;6.38;;;4.70;;
21432;SDS011;18592;49.708;10.900;2023-06-22T12:30:43;7.68;;;5.10;;
21432;SDS011;18592;49.708;10.900;2023-06-22T12:32:44;6.15;;;4.47;;
21432;SDS011;18592;49.708;10.900;2023-06-22T12:34:44;6.20;;;4.95;;
21432;SDS011;18592;49.708;10.900;2023-06-22T12:36:50;7.78;;;5.13;;
21432;SDS011;18592;49.708;10.900;2023-06-22T12:38:51;7.10;;;4.72;;
21432;SDS011;18592;49.708;10.900;2023-06-22T12:40:51;5.68;;;5.15;;
21432;SDS011;18592;49.708;10.900;2023-06-22T12:42:52;5.40;;;4.90;;
21432;SDS011;18592;49.708;10.900;2023-06-22T12:44:52;8.43;;;5.03;;
21432;SDS011;18592;49.708;10.900;2023-06-22T12:46:56;5.30;;;4.70;;
21432;SDS011;18592;49.708;10.900;2023-06-22T12:48:56;5.88;;;4.82;;
21432;SDS011;18592;49.708;10.900;2023-06-22T12:50:57;6.35;;;5.13;;
21432;SDS011;18592;49.708;10.900;2023-06-22T12:52:57;7.35;;;5.20;;